Time;durP1;ratioP1;P1;durP2;ratioP2;P2;SDS_P1;SDS_P2;PMS_P1;PMS_P2;Temp;Humidity;BMP_temperature;BMP_pressure;BME280_temperature;BME280_humidity;BME280_pressure;Samples;Min_cycle;Max_cycle;Signal;HPM_P1;HPM_P2
2023/07/09 00:02:21;;;;;;;0.50;0.50;;;20.30;99.90;;;;;;5048373;28;20045;-75
2023/07/09 00:04:47;;;;;;;0.38;0.38;;;20.20;99.90;;;;;;5057301;28;20044;-75
2023/07/09 00:07:30;;;;;;;1.42;0.85;;;20.20;99.90;;;;;;5055609;28;20037;-75
2023/07/09 00:09:56;;;;;;;0.63;0.63;;;20.10;99.90;;;;;;5049098;28;20071;-75
2023/07/09 00:12:22;;;;;;;0.50;0.50;;;20.10;99.90;;;;;;5047073;28;20041;-75
2023/07/09 00:14:48;;;;;;;0.40;0.40;;;20.10;99.90;;;;;;5049943;28;20041;-75
2023/07/09 00:17:33;;;;;;;0.47;0.47;;;20.10;99.90;;;;;;5029924;28;20083;-76
2023/07/09 00:19:59;;;;;;;0.30;0.30;;;20.00;99.90;;;;;;5047441;28;20291;-75
2023/07/09 00:22:26;;;;;;;0.40;0.40;;;20.00;99.90;;;;;;5053700;28;20055;-75
2023/07/09 00:24:56;;;;;;;2.00;1.20;;;20.00;99.90;;;;;;5049321;28;20560;-75
2023/07/09 00:27:25;;;;;;;0.28;0.28;;;19.90;99.90;;;;;;5038982;28;20045;-75
2023/07/09 00:29:52;;;;;;;0.65;0.65;;;19.90;99.90;;;;;;5052609;28;20434;-75
2023/07/09 00:32:20;;;;;;;0.30;0.30;;;19.90;99.90;;;;;;5049049;28;20048;-75
2023/07/09 00:34:50;;;;;;;0.50;0.50;;;19.90;99.90;;;;;;5045584;28;20049;-75
2023/07/09 00:37:25;;;;;;;0.57;0.57;;;19.80;99.90;;;;;;5060883;28;20175;-76
2023/07/09 00:39:51;;;;;;;0.60;0.60;;;19.80;99.90;;;;;;5048930;28;20238;-75
2023/07/09 00:42:22;;;;;;;0.80;0.70;;;19.70;99.90;;;;;;5043686;28;20095;-75
2023/07/09 00:44:52;;;;;;;1.63;1.15;;;19.70;99.90;;;;;;5044922;28;20059;-75
2023/07/09 00:47:26;;;;;;;0.43;0.43;;;19.70;99.90;;;;;;5057457;28;20053;-75
2023/07/09 00:50:41;;;;;;;0.63;0.63;;;19.70;99.90;;;;;;5046807;28;20083;-75
2023/07/09 00:53:31;;;;;;;2.28;0.80;;;19.70;99.90;;;;;;5019184;28;20061;-75
2023/07/09 00:56:01;;;;;;;0.30;0.30;;;19.60;99.90;;;;;;5042793;28;20129;-75
2023/07/09 00:58:28;;;;;;;1.73;0.80;;;19.60;99.90;;;;;;5028296;28;20042;-75
2023/07/09 01:01:00;;;;;;;0.88;0.88;;;19.60;99.90;;;;;;5048039;28;20044;-75
2023/07/09 01:03:35;;;;;;;0.73;0.73;;;19.60;99.90;;;;;;5060319;28;20064;-75
2023/07/09 01:06:01;;;;;;;0.30;0.30;;;19.60;99.90;;;;;;5057545;28;20049;-75
2023/07/09 01:08:31;;;;;;;0.40;0.40;;;19.50;99.90;;;;;;5025255;28;20044;-75
2023/07/09 01:10:58;;;;;;;0.82;0.82;;;19.50;99.90;;;;;;5048981;28;20603;-75
2023/07/09 01:13:26;;;;;;;2.38;0.95;;;19.50;99.90;;;;;;5050021;28;20048;-75
2023/07/09 01:15:53;;;;;;;0.25;0.25;;;19.50;99.90;;;;;;5051809;28;20080;-75
2023/07/09 01:18:19;;;;;;;0.50;0.50;;;19.40;99.90;;;;;;5054692;28;20482;-75
2023/07/09 01:20:46;;;;;;;0.40;0.40;;;19.40;99.90;;;;;;5047242;28;20051;-75
2023/07/09 01:23:12;;;;;;;0.65;0.60;;;19.40;99.90;;;;;;5053107;28;20501;-75
2023/07/09 01:25:43;;;;;;;0.20;0.20;;;19.40;99.90;;;;;;5046881;28;20091;-75
2023/07/09 01:28:09;;;;;;;0.68;0.68;;;19.30;99.90;;;;;;5053531;28;20505;-76
2023/07/09 01:30:38;;;;;;;0.30;0.30;;;19.30;99.90;;;;;;5047383;28;20515;-75
2023/07/09 01:33:06;;;;;;;0.30;0.30;;;19.20;99.90;;;;;;5050523;28;20051;-75
2023/07/09 01:35:34;;;;;;;0.50;0.50;;;19.20;99.90;;;;;;5049549;28;20412;-75
2023/07/09 01:38:01;;;;;;;0.30;0.30;;;19.20;99.90;;;;;;5047660;28;20049;-75
2023/07/09 01:40:28;;;;;;;0.60;0.60;;;19.20;99.90;;;;;;5054205;28;20033;-75
2023/07/09 01:42:57;;;;;;;0.20;0.20;;;19.10;99.90;;;;;;5036620;28;20436;-75
2023/07/09 01:45:24;;;;;;;0.77;0.77;;;19.10;99.90;;;;;;5047793;28;20406;-75
2023/07/09 01:47:49;;;;;;;0.55;0.55;;;19.00;99.90;;;;;;5046736;28;20047;-76
2023/07/09 01:50:16;;;;;;;0.40;0.40;;;19.00;99.90;;;;;;5051155;28;20044;-76
2023/07/09 01:52:43;;;;;;;0.68;0.68;;;19.00;99.90;;;;;;5056057;28;20049;-76
2023/07/09 01:55:10;;;;;;;0.30;0.30;;;19.00;99.90;;;;;;5058533;28;20055;-76
2023/07/09 01:57:36;;;;;;;0.50;0.50;;;18.90;99.90;;;;;;5056318;28;20044;-76
2023/07/09 02:00:13;;;;;;;0.57;0.57;;;18.90;99.90;;;;;;5060495;28;20459;-76
2023/07/09 02:02:43;;;;;;;0.40;0.40;;;18.90;99.90;;;;;;5052525;28;20036;-75
2023/07/09 02:05:10;;;;;;;0.28;0.28;;;18.80;99.90;;;;;;5050232;28;20041;-76
2023/07/09 02:07:35;;;;;;;0.60;0.60;;;18.70;99.90;;;;;;5056204;28;20040;-76
2023/07/09 02:10:01;;;;;;;0.57;0.57;;;18.80;99.90;;;;;;5050600;28;20103;-76
2023/07/09 02:12:27;;;;;;;0.38;0.38;;;18.60;99.90;;;;;;5058140;28;20037;-75
2023/07/09 02:14:52;;;;;;;1.55;0.80;;;18.70;99.90;;;;;;5053883;28;20040;-76
2023/07/09 02:17:18;;;;;;;0.47;0.45;;;18.70;99.90;;;;;;5058527;28;20128;-75
2023/07/09 02:19:44;;;;;;;0.30;0.30;;;18.60;99.90;;;;;;5056219;28;20072;-76
2023/07/09 02:22:10;;;;;;;0.30;0.30;;;18.60;99.90;;;;;;5056604;28;20137;-75
2023/07/09 02:24:37;;;;;;;0.50;0.50;;;18.70;99.90;;;;;;5049831;28;20068;-75
2023/07/09 02:27:05;;;;;;;0.40;0.40;;;18.70;99.90;;;;;;5059902;28;20083;-76
2023/07/09 02:29:31;;;;;;;0.28;0.28;;;18.50;99.90;;;;;;5045714;28;20052;-75
2023/07/09 02:31:58;;;;;;;0.50;0.50;;;18.60;99.90;;;;;;5059838;28;20088;-75
2023/07/09 02:34:28;;;;;;;0.30;0.28;;;18.50;99.90;;;;;;5051257;28;20088;-76
2023/07/09 02:36:55;;;;;;;0.30;0.30;;;18.50;99.90;;;;;;5018958;28;20053;-75
2023/07/09 02:39:22;;;;;;;0.40;0.40;;;18.60;99.90;;;;;;5051331;28;20145;-76
2023/07/09 02:41:48;;;;;;;0.30;0.30;;;18.50;99.90;;;;;;5054245;28;20135;-76
2023/07/09 02:44:14;;;;;;;1.70;0.90;;;18.40;99.90;;;;;;5059116;28;20036;-75
2023/07/09 02:46:40;;;;;;;0.43;0.43;;;18.40;99.90;;;;;;5047633;28;20058;-76
2023/07/09 02:49:06;;;;;;;0.32;0.32;;;18.40;99.90;;;;;;5061513;28;20045;-76
2023/07/09 02:51:32;;;;;;;0.40;0.40;;;18.50;99.90;;;;;;5050023;28;20087;-76
2023/07/09 02:54:02;;;;;;;0.40;0.40;;;18.40;99.90;;;;;;5060677;28;20057;-76
2023/07/09 02:56:28;;;;;;;0.40;0.40;;;18.40;99.90;;;;;;5047508;28;20044;-76
2023/07/09 02:58:54;;;;;;;0.40;0.40;;;18.30;99.90;;;;;;5057246;28;20056;-76
2023/07/09 03:01:24;;;;;;;0.50;0.50;;;18.40;99.90;;;;;;5052434;28;20460;-76
2023/07/09 03:03:59;;;;;;;0.43;0.43;;;18.30;99.90;;;;;;5053977;28;20049;-76
2023/07/09 03:06:26;;;;;;;0.63;0.47;;;18.20;99.90;;;;;;5048447;28;20033;-76
2023/07/09 03:08:52;;;;;;;0.38;0.38;;;18.20;99.90;;;;;;5050324;28;20055;-76
2023/07/09 03:11:19;;;;;;;0.40;0.40;;;18.20;99.90;;;;;;5047703;28;20041;-76
2023/07/09 03:13:44;;;;;;;0.40;0.40;;;18.20;99.90;;;;;;5062578;28;20094;-76
2023/07/09 03:16:10;;;;;;;0.90;0.52;;;18.10;99.90;;;;;;5054780;28;20409;-76
2023/07/09 03:18:36;;;;;;;0.90;0.68;;;18.10;99.90;;;;;;5057298;28;20045;-76
2023/07/09 03:21:02;;;;;;;0.35;0.32;;;18.00;99.90;;;;;;5050504;28;20114;-75
2023/07/09 03:23:28;;;;;;;0.68;0.68;;;18.00;99.90;;;;;;5058224;28;20095;-76
2023/07/09 03:25:55;;;;;;;0.60;0.60;;;18.00;99.90;;;;;;5045490;28;20048;-76
2023/07/09 03:28:20;;;;;;;1.65;0.90;;;18.10;99.90;;;;;;5049146;28;20132;-76
2023/07/09 03:30:48;;;;;;;0.40;0.40;;;18.00;99.90;;;;;;5038122;28;20527;-75
2023/07/09 03:33:15;;;;;;;0.32;0.32;;;18.00;99.90;;;;;;5052616;28;20060;-76
2023/07/09 03:35:41;;;;;;;0.45;0.45;;;18.00;99.90;;;;;;5047156;28;20385;-76
2023/07/09 03:38:10;;;;;;;2.03;0.82;;;18.10;99.90;;;;;;5053423;28;20410;-76
2023/07/09 03:40:37;;;;;;;0.43;0.43;;;18.10;99.90;;;;;;5052729;28;20106;-76
2023/07/09 03:43:06;;;;;;;0.30;0.30;;;18.00;99.90;;;;;;5029241;28;20052;-77
2023/07/09 03:45:35;;;;;;;0.40;0.40;;;17.90;99.90;;;;;;5053140;28;20433;-77
2023/07/09 03:48:01;;;;;;;0.60;0.60;;;17.90;99.90;;;;;;5042554;28;20588;-76
2023/07/09 03:50:26;;;;;;;0.60;0.60;;;18.00;99.90;;;;;;5046142;28;20045;-76
2023/07/09 03:52:53;;;;;;;0.40;0.40;;;18.10;99.90;;;;;;5049380;28;20053;-76
2023/07/09 03:55:18;;;;;;;0.70;0.70;;;17.90;99.90;;;;;;5055722;28;20462;-76
2023/07/09 03:57:45;;;;;;;0.50;0.50;;;17.90;99.90;;;;;;5052474;28;20094;-77
2023/07/09 04:00:11;;;;;;;0.90;0.80;;;17.90;99.90;;;;;;5050189;28;20108;-77
2023/07/09 04:02:38;;;;;;;0.90;0.90;;;17.90;99.90;;;;;;5037393;28;20049;-77
2023/07/09 04:05:04;;;;;;;0.47;0.47;;;17.90;99.90;;;;;;5050908;28;20049;-76
2023/07/09 04:07:30;;;;;;;0.80;0.80;;;17.80;99.90;;;;;;5047698;28;20033;-76
2023/07/09 04:09:55;;;;;;;0.57;0.57;;;17.90;99.90;;;;;;5047862;28;20391;-76
2023/07/09 04:12:21;;;;;;;0.50;0.50;;;17.90;99.90;;;;;;5057233;28;20041;-76
2023/07/09 04:14:46;;;;;;;0.65;0.65;;;17.90;99.90;;;;;;5048931;28;20056;-76
2023/07/09 04:17:12;;;;;;;0.40;0.40;;;17.90;99.90;;;;;;5043817;28;20092;-76
2023/07/09 04:19:38;;;;;;;0.30;0.30;;;18.00;99.90;;;;;;5048536;28;20064;-77
2023/07/09 04:22:04;;;;;;;0.60;0.60;;;17.90;99.90;;;;;;5053011;28;20095;-76
2023/07/09 04:24:30;;;;;;;1.75;0.75;;;17.90;99.90;;;;;;5046002;28;20405;-76
2023/07/09 04:26:56;;;;;;;0.80;0.80;;;17.90;99.90;;;;;;5054193;28;20056;-76
2023/07/09 04:29:23;;;;;;;0.50;0.50;;;17.90;99.90;;;;;;5044375;28;20091;-77
2023/07/09 04:31:49;;;;;;;0.40;0.40;;;18.10;99.90;;;;;;5049850;28;20057;-76
2023/07/09 04:34:14;;;;;;;0.70;0.70;;;18.00;99.90;;;;;;5036481;28;20041;-76
2023/07/09 04:36:40;;;;;;;0.60;0.60;;;18.20;99.90;;;;;;5050295;28;20037;-76
2023/07/09 04:39:05;;;;;;;0.65;0.65;;;18.10;99.90;;;;;;5048624;28;20048;-76
2023/07/09 04:41:31;;;;;;;0.40;0.40;;;18.10;99.90;;;;;;5051563;28;20037;-76
2023/07/09 04:43:57;;;;;;;1.33;0.80;;;18.30;99.90;;;;;;5047095;28;20049;-76
2023/07/09 04:46:22;;;;;;;0.40;0.40;;;18.20;99.90;;;;;;5059022;28;20465;-76
2023/07/09 04:48:48;;;;;;;2.25;1.48;;;18.30;99.90;;;;;;5047521;28;20425;-77
2023/07/09 04:51:13;;;;;;;0.85;0.75;;;18.40;99.90;;;;;;5044599;28;20072;-77
2023/07/09 04:53:39;;;;;;;0.90;0.90;;;18.60;99.90;;;;;;5044551;28;20118;-77
2023/07/09 04:56:06;;;;;;;0.65;0.65;;;18.50;99.90;;;;;;5047810;28;20124;-77
2023/07/09 04:58:31;;;;;;;0.60;0.60;;;18.60;99.90;;;;;;5046667;28;20052;-77
2023/07/09 05:00:58;;;;;;;0.60;0.60;;;18.70;99.90;;;;;;5053857;28;20037;-77
2023/07/09 05:03:24;;;;;;;0.77;0.77;;;18.70;99.90;;;;;;5046178;28;20083;-76
2023/07/09 05:05:50;;;;;;;0.45;0.35;;;18.80;99.90;;;;;;5049159;28;20639;-76
2023/07/09 05:08:16;;;;;;;0.47;0.47;;;19.00;99.90;;;;;;5049034;28;20095;-76
2023/07/09 05:10:43;;;;;;;0.40;0.40;;;18.90;99.90;;;;;;5053412;28;20091;-76
2023/07/09 05:13:09;;;;;;;0.40;0.40;;;19.10;99.90;;;;;;5055015;28;20052;-75
2023/07/09 05:15:35;;;;;;;0.40;0.40;;;19.20;99.90;;;;;;5043440;28;20051;-75
2023/07/09 05:18:00;;;;;;;0.43;0.43;;;19.20;99.90;;;;;;5042006;28;20041;-76
2023/07/09 05:20:26;;;;;;;0.68;0.68;;;19.40;99.90;;;;;;5028873;28;20393;-77
2023/07/09 05:22:52;;;;;;;0.60;0.60;;;19.70;99.90;;;;;;5045476;28;20079;-77
2023/07/09 05:25:18;;;;;;;0.70;0.65;;;19.60;99.90;;;;;;5047231;28;20048;-77
2023/07/09 05:27:43;;;;;;;1.40;1.30;;;19.80;99.90;;;;;;5048133;28;20048;-76
2023/07/09 05:30:09;;;;;;;0.60;0.60;;;19.90;99.90;;;;;;5040753;28;20493;-77
2023/07/09 05:32:37;;;;;;;0.80;0.75;;;20.00;99.90;;;;;;5047396;28;20473;-77
2023/07/09 05:35:02;;;;;;;1.30;1.23;;;20.10;99.90;;;;;;5048473;28;20049;-77
2023/07/09 05:37:28;;;;;;;1.48;0.73;;;20.40;99.90;;;;;;5052855;28;20049;-77
2023/07/09 05:39:54;;;;;;;1.15;1.05;;;20.40;99.90;;;;;;5053477;28;20044;-78
2023/07/09 05:42:20;;;;;;;1.55;1.23;;;20.60;99.90;;;;;;5046971;28;20466;-77
2023/07/09 05:44:46;;;;;;;0.45;0.45;;;20.50;99.90;;;;;;5053409;28;20815;-77
2023/07/09 05:47:11;;;;;;;1.50;1.40;;;20.80;99.90;;;;;;5051654;28;20401;-77
2023/07/09 05:49:38;;;;;;;1.88;1.63;;;20.70;99.90;;;;;;5050139;28;20040;-77
2023/07/09 05:52:04;;;;;;;2.97;2.50;;;20.80;99.90;;;;;;5051459;28;20339;-77
2023/07/09 05:54:30;;;;;;;0.93;0.93;;;20.90;99.90;;;;;;5057696;28;20417;-77
2023/07/09 05:56:56;;;;;;;1.20;1.10;;;21.00;99.90;;;;;;5052235;28;20048;-78
2023/07/09 05:59:21;;;;;;;0.57;0.57;;;21.20;99.90;;;;;;5033136;28;20036;-77
2023/07/09 06:01:47;;;;;;;1.98;0.90;;;21.30;99.90;;;;;;5051169;28;20540;-77
2023/07/09 06:04:13;;;;;;;1.23;1.20;;;21.30;99.90;;;;;;5056656;28;20051;-77
2023/07/09 06:06:41;;;;;;;0.70;0.70;;;21.60;99.90;;;;;;5049389;28;20124;-78
2023/07/09 06:09:08;;;;;;;1.10;0.93;;;21.40;99.90;;;;;;5053803;28;20045;-77
2023/07/09 06:11:34;;;;;;;1.50;1.40;;;21.60;99.90;;;;;;5048696;28;20049;-77
2023/07/09 06:14:00;;;;;;;0.68;0.68;;;21.80;99.90;;;;;;5049622;28;20040;-77
2023/07/09 06:16:27;;;;;;;1.75;1.23;;;21.90;99.90;;;;;;5049492;28;20049;-77
2023/07/09 06:18:53;;;;;;;0.65;0.65;;;21.80;99.90;;;;;;5052416;28;20449;-77
2023/07/09 06:21:19;;;;;;;0.50;0.50;;;21.90;99.90;;;;;;5050933;28;20141;-77
2023/07/09 06:23:46;;;;;;;0.60;0.60;;;22.00;99.90;;;;;;5051834;28;20128;-77
2023/07/09 06:26:12;;;;;;;0.30;0.30;;;22.30;99.90;;;;;;5057131;28;20474;-77
2023/07/09 06:28:38;;;;;;;0.95;0.95;;;22.40;99.90;;;;;;5057010;28;20048;-77
2023/07/09 06:31:04;;;;;;;0.68;0.68;;;22.30;99.90;;;;;;5053113;28;20049;-77
2023/07/09 06:33:30;;;;;;;0.73;0.70;;;22.70;99.90;;;;;;5055645;28;20044;-77
2023/07/09 06:35:58;;;;;;;0.65;0.65;;;22.60;99.90;;;;;;5049949;28;20049;-77
2023/07/09 06:38:25;;;;;;;1.00;1.00;;;22.60;99.90;;;;;;5050017;28;20448;-77
2023/07/09 06:40:51;;;;;;;0.70;0.70;;;22.70;99.90;;;;;;5060857;28;20397;-77
2023/07/09 06:43:17;;;;;;;0.40;0.40;;;22.90;99.90;;;;;;5041688;28;20060;-77
2023/07/09 06:45:55;;;;;;;1.00;1.00;;;23.00;99.90;;;;;;5051800;28;20142;-78
2023/07/09 06:48:21;;;;;;;1.00;1.00;;;23.30;99.90;;;;;;5054702;28;20055;-78
2023/07/09 06:50:47;;;;;;;1.20;1.15;;;23.60;99.90;;;;;;5045137;28;20041;-78
2023/07/09 06:53:13;;;;;;;0.40;0.40;;;23.50;99.90;;;;;;5047955;28;20087;-78
2023/07/09 06:55:39;;;;;;;1.55;0.90;;;23.90;99.90;;;;;;5052427;28;20068;-78
2023/07/09 06:58:05;;;;;;;1.25;1.25;;;24.00;99.90;;;;;;5047421;28;20501;-78
2023/07/09 07:00:31;;;;;;;1.02;0.93;;;24.50;99.90;;;;;;5050172;28;20045;-78
2023/07/09 07:02:56;;;;;;;0.65;0.65;;;24.70;99.90;;;;;;5047979;28;20049;-78
2023/07/09 07:05:22;;;;;;;0.95;0.95;;;24.90;99.90;;;;;;5051626;28;20040;-78
2023/07/09 07:07:47;;;;;;;0.63;0.63;;;25.10;99.90;;;;;;5048981;28;20052;-78
2023/07/09 07:10:13;;;;;;;1.05;1.05;;;25.40;99.90;;;;;;5050429;28;20045;-78
2023/07/09 07:12:47;;;;;;;1.38;1.38;;;25.60;99.90;;;;;;5050504;28;20520;-78
2023/07/09 07:15:15;;;;;;;0.68;0.68;;;25.70;99.90;;;;;;5050516;28;20041;-78
2023/07/09 07:17:41;;;;;;;0.90;0.90;;;25.90;99.90;;;;;;5051501;28;20045;-78
2023/07/09 07:20:09;;;;;;;2.15;1.85;;;26.20;99.90;;;;;;5049344;28;20045;-78
2023/07/09 07:22:35;;;;;;;1.38;1.27;;;26.40;99.90;;;;;;5051960;28;20060;-76
2023/07/09 07:25:02;;;;;;;0.30;0.30;;;26.80;99.90;;;;;;5047887;28;20135;-76
2023/07/09 07:27:28;;;;;;;1.23;1.13;;;27.00;99.90;;;;;;5050951;28;20541;-76
2023/07/09 07:29:54;;;;;;;0.32;0.32;;;27.20;99.90;;;;;;5050288;28;20457;-76
2023/07/09 07:32:20;;;;;;;0.93;0.88;;;27.50;99.90;;;;;;5037195;28;20182;-76
2023/07/09 07:34:48;;;;;;;0.93;0.93;;;27.60;99.90;;;;;;5047803;28;20479;-76
2023/07/09 07:37:14;;;;;;;1.17;1.08;;;27.80;99.90;;;;;;5051238;28;20085;-76
2023/07/09 07:39:40;;;;;;;0.50;0.50;;;28.00;99.90;;;;;;5047283;28;20044;-76
2023/07/09 07:42:06;;;;;;;0.60;0.60;;;28.20;99.90;;;;;;5041913;28;20056;-76
2023/07/09 07:44:32;;;;;;;0.93;0.85;;;28.50;99.90;;;;;;5060191;28;20074;-76
2023/07/09 07:46:57;;;;;;;0.93;0.93;;;28.70;99.90;;;;;;5042649;28;20521;-76
2023/07/09 07:49:23;;;;;;;2.15;1.40;;;28.80;99.90;;;;;;5047536;28;20575;-76
2023/07/09 07:51:48;;;;;;;1.05;1.02;;;28.80;99.90;;;;;;5048456;28;20098;-78
2023/07/09 07:54:18;;;;;;;1.20;1.13;;;29.00;99.90;;;;;;5049220;28;20040;-78
2023/07/09 07:56:43;;;;;;;0.80;0.80;;;29.20;99.90;;;;;;5053348;28;20060;-78
2023/07/09 07:59:09;;;;;;;1.33;1.30;;;29.10;99.90;;;;;;5048398;28;20049;-78
2023/07/09 08:01:35;;;;;;;1.30;1.30;;;29.30;99.90;;;;;;5026520;28;20076;-78
2023/07/09 08:04:02;;;;;;;0.70;0.70;;;29.30;99.90;;;;;;5048813;28;20048;-78
2023/07/09 08:06:28;;;;;;;2.22;1.13;;;29.40;99.90;;;;;;5049297;28;20124;-78
2023/07/09 08:08:53;;;;;;;0.65;0.65;;;29.60;99.90;;;;;;5055495;28;20535;-77
2023/07/09 08:11:19;;;;;;;0.80;0.52;;;29.90;99.90;;;;;;5054534;28;20058;-78
2023/07/09 08:13:45;;;;;;;1.13;1.13;;;30.00;99.90;;;;;;5050681;28;20060;-75
2023/07/09 08:16:11;;;;;;;0.57;0.57;;;30.40;99.90;;;;;;5052179;28;20044;-75
2023/07/09 08:18:38;;;;;;;0.70;0.70;;;30.30;99.90;;;;;;5053576;28;20033;-76
2023/07/09 08:21:04;;;;;;;1.00;0.98;;;30.60;99.90;;;;;;5049852;28;20053;-75
2023/07/09 08:23:30;;;;;;;0.88;0.88;;;30.70;99.90;;;;;;5051574;28;20044;-75
2023/07/09 08:25:57;;;;;;;1.65;0.80;;;30.90;99.90;;;;;;5042847;28;20064;-75
2023/07/09 08:28:22;;;;;;;0.98;0.70;;;31.10;99.90;;;;;;5050311;28;20070;-75
2023/07/09 08:30:48;;;;;;;0.73;0.73;;;31.30;99.90;;;;;;5050814;28;20145;-76
2023/07/09 08:33:14;;;;;;;0.70;0.60;;;31.50;99.90;;;;;;5053182;28;20076;-76
2023/07/09 08:35:43;;;;;;;0.90;0.90;;;31.80;99.90;;;;;;5038304;28;20053;-76
2023/07/09 08:38:09;;;;;;;0.85;0.50;;;32.10;99.90;;;;;;5047636;28;20464;-75
2023/07/09 08:40:41;;;;;;;2.15;0.80;;;32.20;99.90;;;;;;5044918;28;20041;-76
2023/07/09 08:43:45;;;;;;;0.63;0.63;;;32.20;99.90;;;;;;5040889;28;20049;-76
2023/07/09 08:46:26;;;;;;;1.35;0.98;;;32.30;99.90;;;;;;5031234;28;20045;-76
2023/07/09 08:48:54;;;;;;;0.90;0.90;;;32.30;99.90;;;;;;5047232;28;20048;-75
2023/07/09 08:51:36;;;;;;;2.05;1.85;;;32.50;99.90;;;;;;5051037;28;20037;-75
2023/07/09 08:54:01;;;;;;;1.27;1.20;;;32.40;99.90;;;;;;5040766;28;20053;-77
2023/07/09 08:56:30;;;;;;;0.55;0.55;;;32.70;99.90;;;;;;5045386;28;20063;-77
2023/07/09 08:59:00;;;;;;;0.55;0.55;;;32.80;99.90;;;;;;5039648;28;20494;-76
2023/07/09 09:01:35;;;;;;;0.88;0.88;;;32.80;99.90;;;;;;5048467;28;20091;-76
2023/07/09 09:04:18;;;;;;;1.17;1.17;;;32.90;99.90;;;;;;5038738;28;20048;-76
2023/07/09 09:06:57;;;;;;;1.90;1.55;;;32.70;99.90;;;;;;5042229;28;20049;-76
2023/07/09 09:09:34;;;;;;;1.00;1.00;;;32.80;99.90;;;;;;5048245;28;20044;-76
2023/07/09 09:12:18;;;;;;;1.63;1.50;;;32.90;99.90;;;;;;5038671;28;20091;-76
2023/07/09 09:14:49;;;;;;;0.77;0.77;;;33.10;99.90;;;;;;5036906;28;20054;-76
2023/07/09 09:17:18;;;;;;;1.80;1.70;;;33.30;99.90;;;;;;5044046;28;20509;-75
2023/07/09 09:19:53;;;;;;;4.80;2.05;;;33.30;99.90;;;;;;5052006;28;20401;-75
2023/07/09 09:22:24;;;;;;;0.88;0.88;;;33.20;99.90;;;;;;5051583;28;20178;-75
2023/07/09 09:25:28;;;;;;;2.63;1.55;;;33.00;99.90;;;;;;5044072;28;20048;-74
2023/07/09 09:27:54;;;;;;;1.30;1.20;;;33.20;99.90;;;;;;5028481;28;20107;-75
2023/07/09 09:30:23;;;;;;;0.98;0.98;;;33.30;99.90;;;;;;5060469;28;20049;-76
2023/07/09 09:33:09;;;;;;;1.05;1.05;;;33.30;99.90;;;;;;5055846;28;20043;-75
2023/07/09 09:35:36;;;;;;;;;;;33.40;99.90;;;;;;5052757;28;20052;-76
2023/07/09 09:38:09;;;;;;;2.10;2.00;;;33.70;99.90;;;;;;5047125;28;20016;-75
2023/07/09 09:40:35;;;;;;;1.95;1.85;;;33.60;99.90;;;;;;5040212;28;20049;-76
2023/07/09 09:43:02;;;;;;;1.02;1.02;;;33.80;99.90;;;;;;5057377;28;20055;-75
2023/07/09 09:45:39;;;;;;;0.82;0.75;;;33.70;99.90;;;;;;5036550;28;20481;-75
2023/07/09 09:48:15;;;;;;;;;;;33.80;99.90;;;;;;5043870;28;20048;-75
2023/07/09 09:50:41;;;;;;;2.28;2.17;;;33.90;99.90;;;;;;5047240;28;19925;-76
2023/07/09 09:53:08;;;;;;;0.95;0.95;;;34.10;99.90;;;;;;5045858;28;20383;-76
2023/07/09 09:55:34;;;;;;;1.35;1.35;;;34.00;99.90;;;;;;5043699;28;20199;-76
2023/07/09 09:58:02;;;;;;;1.17;1.17;;;34.10;99.90;;;;;;5046480;28;20503;-75
2023/07/09 10:00:29;;;;;;;2.35;1.88;;;34.40;99.90;;;;;;5050447;28;20122;-75
2023/07/09 10:02:59;;;;;;;1.10;1.10;;;34.40;99.90;;;;;;5043905;28;20053;-75
2023/07/09 10:05:44;;;;;;;3.70;2.08;;;34.60;99.90;;;;;;5045386;28;20187;-78
2023/07/09 10:08:41;;;;;;;2.35;2.25;;;34.60;99.90;;;;;;5044871;28;20401;-77
2023/07/09 10:11:15;;;;;;;2.25;2.05;;;34.70;99.90;;;;;;5035068;28;20040;-75
2023/07/09 10:13:44;;;;;;;1.90;1.80;;;34.60;99.90;;;;;;5035988;28;20107;-75
2023/07/09 10:16:29;;;;;;;1.25;1.25;;;34.60;99.90;;;;;;5037513;28;20561;-76
2023/07/09 10:19:23;;;;;;;1.48;1.48;;;34.50;99.90;;;;;;5040731;28;20532;-75
2023/07/09 10:22:05;;;;;;;1.55;1.30;;;34.80;99.90;;;;;;5037802;28;20080;-75
2023/07/09 10:24:30;;;;;;;2.05;1.95;;;34.80;99.90;;;;;;5040256;28;20056;-75
2023/07/09 10:27:22;;;;;;;4.57;1.90;;;34.90;99.90;;;;;;5039364;28;20202;-75
2023/07/09 10:30:11;;;;;;;1.73;1.63;;;34.70;99.90;;;;;;5039725;28;20049;-75
2023/07/09 10:32:49;;;;;;;2.40;2.20;;;34.90;99.90;;;;;;5035894;28;20049;-75
2023/07/09 10:35:37;;;;;;;3.05;2.47;;;34.90;99.90;;;;;;5037658;28;20482;-75
2023/07/09 10:38:27;;;;;;;1.38;1.30;;;34.70;99.90;;;;;;5041172;28;20053;-75
2023/07/09 10:40:57;;;;;;;2.50;2.30;;;34.80;99.90;;;;;;5038621;28;20120;-75
2023/07/09 10:43:29;;;;;;;1.73;1.63;;;34.80;99.90;;;;;;5041292;28;20642;-75
2023/07/09 10:45:59;;;;;;;1.13;1.13;;;34.70;99.90;;;;;;5040757;28;20041;-76
2023/07/09 10:48:38;;;;;;;2.92;1.38;;;35.10;99.90;;;;;;5039980;28;20726;-75
2023/07/09 10:51:34;;;;;;;0.85;0.82;;;35.30;99.90;;;;;;5037862;28;20037;-75
2023/07/09 10:54:17;;;;;;;0.90;0.90;;;35.30;99.90;;;;;;5033666;28;20049;-75
2023/07/09 10:56:47;;;;;;;0.90;0.90;;;35.20;99.90;;;;;;5038299;28;20045;-75
2023/07/09 10:59:33;;;;;;;1.08;1.05;;;35.60;99.90;;;;;;5039102;28;20387;-75
2023/07/09 11:02:24;;;;;;;0.57;0.57;;;35.70;99.90;;;;;;5039244;28;20525;-77
2023/07/09 11:05:00;;;;;;;0.75;0.75;;;36.20;99.90;;;;;;5038916;28;20040;-75
2023/07/09 11:07:29;;;;;;;0.90;0.90;;;36.20;99.90;;;;;;5019341;28;20135;-75
2023/07/09 11:09:58;;;;;;;1.60;1.50;;;36.60;99.90;;;;;;5038816;28;20045;-75
2023/07/09 11:12:30;;;;;;;1.30;1.20;;;36.50;99.90;;;;;;5034664;28;20064;-76
2023/07/09 11:15:07;;;;;;;0.80;0.80;;;36.40;99.90;;;;;;5032163;28;20517;-75
2023/07/09 11:17:34;;;;;;;0.93;0.93;;;36.20;99.90;;;;;;5035783;28;20048;-77
2023/07/09 11:20:15;;;;;;;2.30;2.10;;;36.10;99.90;;;;;;5036884;28;20110;-78
2023/07/09 11:22:41;;;;;;;1.88;1.77;;;36.10;99.90;;;;;;5034993;28;20052;-77
2023/07/09 11:25:26;;;;;;;1.47;1.10;;;36.10;99.90;;;;;;5039560;28;20044;-77
2023/07/09 11:27:52;;;;;;;0.82;0.82;;;36.10;99.80;;;;;;5038654;28;20505;-78
2023/07/09 11:30:22;;;;;;;;;;;36.30;99.90;;;;;;5037261;28;20029;-77
2023/07/09 11:32:56;;;;;;;1.83;1.67;;;36.10;99.90;;;;;;5037769;28;20504;-78
2023/07/09 11:35:26;;;;;;;2.28;1.55;;;36.10;99.80;;;;;;5039125;28;20496;-78
2023/07/09 11:37:53;;;;;;;1.02;1.02;;;36.30;99.90;;;;;;5040435;28;20119;-78
2023/07/09 11:40:20;;;;;;;;;;;36.50;99.50;;;;;;5040083;28;20045;-77
2023/07/09 11:42:51;;;;;;;0.65;0.65;;;36.60;98.70;;;;;;5034781;28;19928;-77
2023/07/09 11:45:25;;;;;;;0.90;0.90;;;36.50;98.60;;;;;;5039989;28;20536;-78
2023/07/09 11:48:03;;;;;;;0.77;0.77;;;36.60;98.50;;;;;;5038287;28;20052;-77
2023/07/09 11:50:41;;;;;;;0.90;0.90;;;36.80;98.90;;;;;;5039605;28;20140;-77
2023/07/09 11:53:21;;;;;;;3.22;3.03;;;36.90;99.00;;;;;;5039218;28;21081;-78
2023/07/09 11:55:47;;;;;;;3.42;3.22;;;36.60;99.40;;;;;;5035330;28;20044;-76
2023/07/09 11:58:14;;;;;;;1.03;1.03;;;36.40;99.80;;;;;;5035639;28;20094;-77
2023/07/09 12:00:46;;;;;;;1.13;1.13;;;36.40;99.90;;;;;;5037887;28;20075;-76
2023/07/09 12:03:18;;;;;;;0.80;0.80;;;36.40;99.40;;;;;;5037485;28;20067;-76
2023/07/09 12:05:52;;;;;;;1.05;1.05;;;36.40;99.00;;;;;;5038104;28;20131;-76
2023/07/09 12:08:22;;;;;;;1.65;1.55;;;36.60;98.20;;;;;;5037493;28;20693;-76
2023/07/09 12:10:48;;;;;;;0.88;0.88;;;36.50;98.40;;;;;;5037655;28;20049;-77
2023/07/09 12:13:14;;;;;;;1.40;1.30;;;36.50;98.20;;;;;;5036056;28;20071;-77
2023/07/09 12:15:40;;;;;;;1.40;1.30;;;36.40;98.60;;;;;;5035178;28;20116;-77
2023/07/09 12:18:14;;;;;;;1.30;1.20;;;36.30;99.30;;;;;;5037763;28;20049;-77
2023/07/09 12:20:41;;;;;;;0.75;0.75;;;36.30;98.30;;;;;;5037296;28;20079;-77
2023/07/09 12:23:21;;;;;;;2.50;2.30;;;36.20;98.70;;;;;;5034080;28;20049;-78
2023/07/09 12:25:50;;;;;;;1.52;1.48;;;36.00;99.20;;;;;;5035569;28;20476;-77
2023/07/09 12:28:16;;;;;;;1.52;1.42;;;35.80;98.60;;;;;;5036490;28;20080;-78
2023/07/09 12:30:49;;;;;;;;;;;35.90;98.10;;;;;;5035927;28;20049;-78
2023/07/09 12:33:23;;;;;;;2.58;2.25;;;35.90;99.00;;;;;;5035039;28;19924;-77
2023/07/09 12:35:56;;;;;;;1.70;1.60;;;36.10;99.20;;;;;;5050007;28;20059;-78
2023/07/09 12:38:24;;;;;;;1.25;1.25;;;36.10;98.40;;;;;;5036414;28;20351;-78
2023/07/09 12:40:51;;;;;;;1.45;1.35;;;35.80;98.60;;;;;;5035917;28;20487;-79
2023/07/09 12:43:24;;;;;;;;;;;35.90;98.30;;;;;;5033977;28;20049;-77
2023/07/09 12:45:50;;;;;;;1.45;1.45;;;35.70;98.90;;;;;;5036494;28;20445;-77
2023/07/09 12:48:16;;;;;;;1.10;1.10;;;35.60;99.40;;;;;;5037915;28;20045;-77
2023/07/09 12:50:50;;;;;;;2.10;1.90;;;35.70;99.20;;;;;;5033686;28;20055;-77
2023/07/09 12:53:18;;;;;;;0.93;0.93;;;36.00;98.60;;;;;;5036595;28;20501;-78
2023/07/09 12:55:47;;;;;;;1.02;1.02;;;36.00;98.50;;;;;;5036350;28;20045;-77
2023/07/09 12:58:43;;;;;;;1.08;1.08;;;35.90;99.00;;;;;;5037174;28;20043;-77
2023/07/09 13:01:16;;;;;;;;;;;36.00;98.70;;;;;;5016397;28;20064;-77